Time;durP1;ratioP1;P1;durP2;ratioP2;P2;SDS_P1;SDS_P2;PMS_P1;PMS_P2;Temp;Humidity;BMP_temperature;BMP_pressure;BME280_temperature;BME280_humidity;BME280_pressure;Samples;Min_cycle;Max_cycle;Signal;HPM_P1;HPM_P2
2021/03/16 00:01:07;;;;;;;20.53;2.63;;;6.30;94.30;;;;;;5034955;28;20435;-85
2021/03/16 00:03:33;;;;;;;19.20;2.40;;;6.20;94.10;;;;;;5018997;28;20437;-85
2021/03/16 00:05:59;;;;;;;17.70;2.73;;;6.20;94.10;;;;;;5019065;28;20121;-85
2021/03/16 00:08:24;;;;;;;18.10;2.57;;;6.20;94.10;;;;;;5018584;28;20116;-84
2021/03/16 00:10:50;;;;;;;16.57;2.17;;;6.20;93.80;;;;;;5018021;28;20465;-85
2021/03/16 00:13:16;;;;;;;17.73;2.80;;;6.20;94.10;;;;;;5018453;28;20037;-85
2021/03/16 00:15:42;;;;;;;20.53;3.37;;;6.20;93.90;;;;;;5018620;28;20095;-85
2021/03/16 00:18:14;;;;;;;16.03;2.30;;;6.20;93.80;;;;;;5036955;28;20029;-85
2021/03/16 00:20:43;;;;;;;14.83;2.17;;;6.30;93.50;;;;;;5018536;28;20092;-85
2021/03/16 00:23:09;;;;;;;16.77;2.05;;;6.20;93.50;;;;;;5036593;28;20029;-86
2021/03/16 00:25:35;;;;;;;17.40;2.97;;;6.20;93.30;;;;;;5035591;28;20517;-85
2021/03/16 00:28:01;;;;;;;16.90;2.27;;;6.30;93.60;;;;;;5018413;28;20131;-85
2021/03/16 00:30:27;;;;;;;15.43;2.40;;;6.30;93.30;;;;;;5034194;28;20057;-84
2021/03/16 00:32:52;;;;;;;19.00;2.57;;;6.30;93.30;;;;;;5034648;28;20093;-85
2021/03/16 00:35:20;;;;;;;18.20;3.60;;;6.40;93.40;;;;;;5018503;28;20124;-85
2021/03/16 00:37:46;;;;;;;14.93;2.23;;;6.40;93.10;;;;;;5036396;28;20024;-85
2021/03/16 00:40:12;;;;;;;12.60;2.00;;;6.30;92.70;;;;;;5033966;28;20377;-85
2021/03/16 00:42:38;;;;;;;8.00;1.97;;;6.30;92.70;;;;;;5036588;28;20022;-85
2021/03/16 00:45:07;;;;;;;11.93;2.13;;;6.30;92.60;;;;;;5018414;28;20390;-85
2021/03/16 00:47:33;;;;;;;14.80;1.87;;;6.40;93.00;;;;;;5018234;28;20506;-85
2021/03/16 00:50:02;;;;;;;20.30;2.33;;;6.30;92.60;;;;;;5017640;28;20033;-85
2021/03/16 00:52:28;;;;;;;16.13;2.28;;;6.30;92.60;;;;;;5018829;28;20390;-84
2021/03/16 00:54:53;;;;;;;22.13;2.90;;;6.30;92.40;;;;;;5018562;28;20030;-85
2021/03/16 00:57:19;;;;;;;16.90;2.30;;;6.30;92.40;;;;;;5018760;28;20117;-84
2021/03/16 00:59:45;;;;;;;17.43;2.20;;;6.30;92.30;;;;;;5050769;28;20041;-84
2021/03/16 01:02:11;;;;;;;19.43;2.50;;;6.40;92.40;;;;;;5058253;28;20039;-84
2021/03/16 01:04:36;;;;;;;15.73;2.20;;;6.30;92.50;;;;;;5057529;28;20017;-84
2021/03/16 01:07:02;;;;;;;15.23;2.00;;;6.30;92.50;;;;;;5043952;28;20041;-85
2021/03/16 01:09:28;;;;;;;14.27;1.73;;;6.40;92.70;;;;;;5017409;28;20156;-85
2021/03/16 01:11:54;;;;;;;16.03;2.07;;;6.40;92.50;;;;;;5035077;28;20486;-85
2021/03/16 01:14:19;;;;;;;20.47;2.30;;;6.40;92.60;;;;;;5053985;23;20049;-83
2021/03/16 01:16:45;;;;;;;9.93;2.00;;;6.40;92.40;;;;;;5054149;28;20025;-83
2021/03/16 01:19:10;;;;;;;16.43;2.40;;;6.40;92.20;;;;;;5035842;28;20029;-82
2021/03/16 01:21:36;;;;;;;20.20;2.40;;;6.30;92.20;;;;;;5054147;28;20438;-82
2021/03/16 01:24:02;;;;;;;14.93;1.70;;;6.40;92.30;;;;;;5049151;28;20568;-83
2021/03/16 01:26:28;;;;;;;17.80;2.00;;;6.40;92.40;;;;;;5056000;28;20025;-83
2021/03/16 01:28:53;;;;;;;18.80;2.50;;;6.40;92.70;;;;;;5059944;28;20119;-83
2021/03/16 01:31:19;;;;;;;18.93;2.50;;;6.40;92.70;;;;;;5060328;28;20027;-82
2021/03/16 01:33:44;;;;;;;18.67;2.50;;;6.30;93.10;;;;;;5078294;28;20555;-83
2021/03/16 01:36:10;;;;;;;18.73;2.80;;;6.20;93.50;;;;;;5060374;28;20029;-83
2021/03/16 01:38:36;;;;;;;15.53;2.13;;;6.20;93.60;;;;;;5059732;28;20020;-82
2021/03/16 01:41:02;;;;;;;22.47;2.47;;;6.20;93.80;;;;;;5060105;28;20499;-83
2021/03/16 01:43:30;;;;;;;15.47;2.23;;;6.30;93.90;;;;;;5079272;28;20107;-82
2021/03/16 01:45:57;;;;;;;16.42;2.42;;;6.30;94.10;;;;;;5060047;28;20552;-82
2021/03/16 01:48:32;;;;;;;23.37;2.67;;;6.30;94.10;;;;;;5060597;28;20392;-82
2021/03/16 01:51:00;;;;;;;13.83;2.20;;;6.20;94.40;;;;;;5059980;28;20028;-82
2021/03/16 01:53:25;;;;;;;15.23;2.17;;;6.30;94.50;;;;;;5060282;28;20457;-83
2021/03/16 01:55:52;;;;;;;16.63;2.80;;;6.20;94.20;;;;;;5078518;28;20025;-83
2021/03/16 01:58:18;;;;;;;20.80;2.50;;;6.20;94.30;;;;;;5060008;28;20420;-83
2021/03/16 02:00:44;;;;;;;16.70;2.17;;;6.30;94.10;;;;;;5078442;28;20025;-83
2021/03/16 02:03:11;;;;;;;13.53;1.97;;;6.20;94.10;;;;;;5060357;28;20252;-83
2021/03/16 02:05:38;;;;;;;14.10;2.20;;;6.20;93.90;;;;;;5059640;28;20056;-83
2021/03/16 02:08:31;;;;;;;16.77;2.20;;;6.20;93.60;;;;;;5060163;28;20437;-83
2021/03/16 02:11:07;;;;;;;16.47;2.30;;;6.20;93.70;;;;;;5077752;28;20075;-83
2021/03/16 02:13:42;;;;;;;13.80;1.80;;;6.10;93.40;;;;;;5077194;28;20047;-83
2021/03/16 02:16:14;;;;;;;19.60;2.23;;;6.20;93.40;;;;;;5058879;28;20028;-83
2021/03/16 02:18:52;;;;;;;13.03;2.47;;;6.10;93.50;;;;;;5058716;28;20115;-84
2021/03/16 02:21:26;;;;;;;21.10;2.43;;;6.20;93.30;;;;;;5058646;28;20124;-83
2021/03/16 02:24:09;;;;;;;19.03;2.53;;;6.10;93.00;;;;;;5059491;28;20029;-83
2021/03/16 02:26:43;;;;;;;15.27;2.33;;;6.10;93.10;;;;;;5058455;28;20024;-83
2021/03/16 02:29:24;;;;;;;18.00;2.13;;;6.10;92.90;;;;;;5076231;28;20477;-83
2021/03/16 02:32:13;;;;;;;13.00;2.23;;;6.20;93.00;;;;;;5058644;28;20111;-83
2021/03/16 02:34:40;;;;;;;22.23;4.95;;;6.20;92.80;;;;;;5058473;28;20074;-83
2021/03/16 02:37:08;;;;;;;21.37;5.00;;;6.10;92.90;;;;;;5076112;28;20029;-83
2021/03/16 02:39:34;;;;;;;20.70;3.73;;;6.10;92.80;;;;;;5075649;28;20031;-83
2021/03/16 02:42:02;;;;;;;13.43;3.20;;;6.20;92.80;;;;;;5058088;28;20032;-83
2021/03/16 02:44:29;;;;;;;21.53;4.43;;;6.20;92.90;;;;;;5058006;28;20140;-83
2021/03/16 02:46:56;;;;;;;19.13;3.00;;;6.20;92.70;;;;;;5058680;28;20028;-83
2021/03/16 02:49:22;;;;;;;20.07;2.83;;;6.10;92.50;;;;;;5058114;28;20020;-83
2021/03/16 02:51:51;;;;;;;17.50;2.93;;;6.10;92.60;;;;;;5079420;28;20679;-83
2021/03/16 02:54:19;;;;;;;16.02;2.22;;;6.10;92.50;;;;;;5078227;28;20473;-83
2021/03/16 02:56:48;;;;;;;17.80;2.07;;;6.10;92.60;;;;;;5059720;28;20124;-83
2021/03/16 02:59:16;;;;;;;14.07;1.95;;;6.20;92.60;;;;;;5077916;28;20123;-83
2021/03/16 03:01:43;;;;;;;21.53;2.50;;;6.10;92.20;;;;;;5059579;28;20031;-83
2021/03/16 03:04:09;;;;;;;11.63;1.93;;;6.20;92.20;;;;;;5076927;28;20036;-83
2021/03/16 03:06:38;;;;;;;13.33;1.87;;;6.20;91.90;;;;;;5079081;28;20024;-83
2021/03/16 03:09:05;;;;;;;10.77;1.38;;;6.20;91.60;;;;;;5060052;28;20194;-83
2021/03/16 03:11:32;;;;;;;14.07;2.20;;;6.20;91.80;;;;;;5060227;28;20029;-83
2021/03/16 03:13:59;;;;;;;17.23;1.80;;;6.20;91.60;;;;;;5079108;28;20032;-83
2021/03/16 03:16:25;;;;;;;16.10;2.10;;;6.20;91.30;;;;;;5061774;28;20029;-83
2021/03/16 03:18:51;;;;;;;8.77;1.70;;;6.20;91.00;;;;;;5079489;28;20033;-83
2021/03/16 03:21:24;;;;;;;12.00;1.90;;;6.20;90.90;;;;;;5060614;28;20086;-82
2021/03/16 03:23:57;;;;;;;12.10;1.83;;;6.20;91.10;;;;;;5061014;28;20373;-83
2021/03/16 03:26:30;;;;;;;13.13;1.60;;;6.20;91.10;;;;;;5060673;28;20033;-83
2021/03/16 03:28:57;;;;;;;14.27;2.20;;;6.10;91.20;;;;;;5059215;28;20457;-83
2021/03/16 03:31:23;;;;;;;10.63;1.70;;;6.20;91.40;;;;;;5061038;28;20457;-83
2021/03/16 03:33:49;;;;;;;12.27;1.30;;;6.20;91.90;;;;;;5060920;28;20028;-83
2021/03/16 03:36:16;;;;;;;14.07;2.17;;;6.20;91.70;;;;;;5061879;28;20145;-83
2021/03/16 03:38:42;;;;;;;14.40;1.77;;;6.20;92.10;;;;;;5060856;28;20039;-83
2021/03/16 03:41:09;;;;;;;14.07;2.00;;;6.20;92.40;;;;;;5059779;28;20405;-83
2021/03/16 03:43:37;;;;;;;17.17;2.57;;;6.20;92.60;;;;;;5059577;28;20392;-83
2021/03/16 03:46:03;;;;;;;13.77;1.97;;;6.20;92.60;;;;;;5059857;28;20388;-83
2021/03/16 03:48:29;;;;;;;10.60;1.93;;;6.10;92.40;;;;;;5079825;28;20443;-83
2021/03/16 03:50:57;;;;;;;15.70;2.00;;;6.10;92.10;;;;;;5058037;28;20025;-83
2021/03/16 03:53:24;;;;;;;16.13;2.20;;;6.10;92.60;;;;;;5058095;28;20392;-83
2021/03/16 03:55:51;;;;;;;13.10;1.60;;;6.10;92.90;;;;;;5058384;28;20056;-83
2021/03/16 03:58:17;;;;;;;19.97;2.53;;;6.20;93.10;;;;;;5058313;28;20025;-83
2021/03/16 04:00:44;;;;;;;11.70;1.97;;;6.10;93.30;;;;;;5057814;28;20056;-83
2021/03/16 04:03:10;;;;;;;16.03;2.43;;;6.10;93.50;;;;;;5057780;28;20123;-83
2021/03/16 04:05:36;;;;;;;20.20;2.87;;;6.10;93.60;;;;;;5058833;28;20035;-84
2021/03/16 04:08:04;;;;;;;15.43;2.33;;;6.10;93.70;;;;;;5057719;28;20025;-83
2021/03/16 04:10:30;;;;;;;15.27;1.83;;;6.10;93.70;;;;;;5057428;28;20032;-83
2021/03/16 04:12:56;;;;;;;19.83;2.73;;;6.10;93.80;;;;;;5059283;28;20493;-83
2021/03/16 04:15:23;;;;;;;14.40;2.50;;;6.10;93.60;;;;;;5078099;28;20032;-83
2021/03/16 04:17:49;;;;;;;17.57;2.20;;;6.10;93.50;;;;;;5061642;28;20088;-83
2021/03/16 04:20:15;;;;;;;16.87;2.10;;;6.10;93.30;;;;;;5060841;28;20063;-83
2021/03/16 04:22:42;;;;;;;14.73;2.20;;;6.10;93.20;;;;;;5065535;28;20028;-83
2021/03/16 04:25:10;;;;;;;13.57;2.10;;;6.10;93.20;;;;;;5083680;28;20028;-83
2021/03/16 04:27:35;;;;;;;17.73;2.47;;;6.10;93.30;;;;;;5064429;28;20036;-83
2021/03/16 04:30:02;;;;;;;14.97;2.00;;;6.10;93.30;;;;;;5063331;28;20032;-83
2021/03/16 04:32:27;;;;;;;16.23;2.13;;;6.10;93.20;;;;;;5064536;28;20021;-83
2021/03/16 04:34:53;;;;;;;12.43;1.80;;;6.00;93.30;;;;;;5082234;28;20534;-83
2021/03/16 04:37:19;;;;;;;18.23;3.07;;;6.10;93.40;;;;;;5082704;28;20032;-84
2021/03/16 04:39:44;;;;;;;17.30;2.83;;;6.10;93.50;;;;;;5064690;28;20557;-83
2021/03/16 04:42:10;;;;;;;13.77;1.93;;;6.10;93.50;;;;;;5065458;28;20029;-83
2021/03/16 04:44:36;;;;;;;16.83;2.27;;;6.00;93.60;;;;;;5064707;28;20047;-83
2021/03/16 04:47:02;;;;;;;15.63;2.33;;;6.10;93.70;;;;;;5083428;28;20035;-83
2021/03/16 04:49:28;;;;;;;15.30;2.40;;;6.10;93.60;;;;;;5066213;28;20111;-83
2021/03/16 04:51:53;;;;;;;19.63;2.23;;;6.10;93.50;;;;;;5068738;28;20051;-83
2021/03/16 04:54:19;;;;;;;15.80;2.17;;;6.10;93.60;;;;;;5086823;28;20021;-83
2021/03/16 04:56:45;;;;;;;14.53;1.97;;;6.10;93.50;;;;;;5068455;28;20058;-83
2021/03/16 04:59:10;;;;;;;16.07;1.80;;;6.00;93.30;;;;;;5086646;28;20412;-83
2021/03/16 05:01:36;;;;;;;14.23;1.90;;;6.10;93.50;;;;;;5069388;28;20024;-83
2021/03/16 05:04:02;;;;;;;13.57;2.20;;;6.10;93.50;;;;;;5069401;28;20435;-84
2021/03/16 05:06:28;;;;;;;15.80;2.57;;;6.10;93.60;;;;;;5069681;28;20028;-83
2021/03/16 05:08:55;;;;;;;18.47;2.63;;;6.20;93.50;;;;;;5086673;28;20054;-84
2021/03/16 05:11:21;;;;;;;8.13;1.53;;;6.10;93.40;;;;;;5069748;28;20024;-84
2021/03/16 05:13:46;;;;;;;12.40;2.10;;;6.10;93.40;;;;;;5087391;28;20039;-84
2021/03/16 05:16:12;;;;;;;17.17;2.40;;;6.00;93.30;;;;;;5069305;28;20483;-84
2021/03/16 05:18:37;;;;;;;17.10;2.23;;;6.00;93.30;;;;;;5069507;28;20510;-84
2021/03/16 05:21:04;;;;;;;14.40;2.10;;;6.00;93.40;;;;;;5082361;28;20029;-83
2021/03/16 05:23:30;;;;;;;13.83;1.93;;;6.00;93.30;;;;;;5083735;28;20029;-83
2021/03/16 05:25:56;;;;;;;16.37;2.20;;;6.00;93.30;;;;;;5065871;28;20036;-83
2021/03/16 05:28:22;;;;;;;18.83;2.50;;;5.90;93.30;;;;;;5084954;28;20017;-83
2021/03/16 05:30:47;;;;;;;14.50;2.03;;;5.90;93.40;;;;;;5061506;28;20020;-83
2021/03/16 05:33:13;;;;;;;15.20;2.50;;;5.80;93.80;;;;;;5079084;28;20043;-83
2021/03/16 05:35:39;;;;;;;14.20;1.70;;;5.80;94.30;;;;;;5077955;28;20021;-83
2021/03/16 05:38:07;;;;;;;13.00;1.93;;;5.70;94.00;;;;;;5078396;28;20075;-83
2021/03/16 05:40:33;;;;;;;10.53;1.70;;;5.80;94.50;;;;;;5059800;28;20088;-83
2021/03/16 05:42:59;;;;;;;13.37;1.97;;;5.80;94.50;;;;;;5079336;28;20420;-82
2021/03/16 05:45:26;;;;;;;16.90;2.83;;;6.00;94.70;;;;;;5079435;28;20046;-83
2021/03/16 05:47:52;;;;;;;19.80;2.50;;;5.90;94.20;;;;;;5078944;28;20080;-83
2021/03/16 05:50:18;;;;;;;12.97;2.27;;;5.90;94.20;;;;;;5078669;28;20104;-83
2021/03/16 05:52:45;;;;;;;22.30;2.93;;;5.90;94.10;;;;;;5078482;28;20028;-83
2021/03/16 05:55:11;;;;;;;16.90;2.60;;;6.00;94.30;;;;;;5079298;28;20028;-83
2021/03/16 05:57:37;;;;;;;13.43;2.37;;;6.00;94.30;;;;;;5060977;28;20484;-83
2021/03/16 06:00:04;;;;;;;21.30;2.67;;;5.90;94.30;;;;;;5079234;28;20029;-83
2021/03/16 06:02:30;;;;;;;14.87;2.63;;;5.90;94.10;;;;;;5077423;28;20033;-82
2021/03/16 06:04:55;;;;;;;16.83;2.70;;;6.00;94.30;;;;;;5059371;28;20024;-83
2021/03/16 06:07:21;;;;;;;16.70;2.63;;;6.00;94.10;;;;;;5059627;28;20056;-82
2021/03/16 06:09:47;;;;;;;13.47;2.17;;;6.00;93.70;;;;;;5058916;28;20024;-83
2021/03/16 06:12:12;;;;;;;17.77;2.50;;;6.00;93.90;;;;;;5077530;28;20161;-83
2021/03/16 06:14:39;;;;;;;18.50;2.03;;;6.10;93.70;;;;;;5060226;28;20036;-83
2021/03/16 06:17:05;;;;;;;14.33;2.23;;;6.10;93.80;;;;;;5060090;28;20031;-83
2021/03/16 06:19:36;;;;;;;19.10;2.53;;;6.00;93.70;;;;;;5059969;28;20036;-83
2021/03/16 06:22:04;;;;;;;22.77;2.50;;;6.00;93.80;;;;;;5078191;28;20370;-83
2021/03/16 06:24:30;;;;;;;16.20;2.83;;;6.00;94.00;;;;;;5060123;28;20028;-83
2021/03/16 06:26:56;;;;;;;24.63;4.13;;;6.00;94.00;;;;;;5077121;28;20028;-84
2021/03/16 06:29:23;;;;;;;22.90;4.53;;;6.00;94.10;;;;;;5078080;28;20072;-83
2021/03/16 06:31:49;;;;;;;14.50;2.60;;;6.10;94.10;;;;;;5061207;28;20025;-83
2021/03/16 06:34:25;;;;;;;17.63;3.10;;;6.10;94.00;;;;;;5078873;28;20024;-84
2021/03/16 06:37:01;;;;;;;18.90;3.13;;;6.10;94.20;;;;;;5080245;28;20036;-83
2021/03/16 06:39:28;;;;;;;14.27;2.80;;;6.10;94.30;;;;;;5060132;28;20398;-83
2021/03/16 06:41:54;;;;;;;14.00;2.90;;;6.00;94.40;;;;;;5078714;28;20536;-82
2021/03/16 06:44:21;;;;;;;15.10;2.63;;;6.00;94.50;;;;;;5060743;28;20078;-83
2021/03/16 06:47:00;;;;;;;15.77;2.73;;;6.00;94.50;;;;;;5060744;28;20100;-82
2021/03/16 06:49:26;;;;;;;17.30;3.40;;;5.90;94.50;;;;;;5059181;28;20052;-83
2021/03/16 06:51:56;;;;;;;16.77;2.50;;;5.90;95.00;;;;;;5059902;28;20054;-82
2021/03/16 06:54:25;;;;;;;11.77;2.07;;;5.90;95.70;;;;;;5059784;28;20046;-83
2021/03/16 06:56:59;;;;;;;;;;;5.80;96.20;;;;;;5060809;28;20032;-83
2021/03/16 06:59:28;;;;;;;14.30;2.13;;;5.80;96.10;;;;;;5059693;28;19920;-83
2021/03/16 07:01:53;;;;;;;15.90;2.33;;;5.80;96.10;;;;;;5060361;28;20036;-83
2021/03/16 07:04:29;;;;;;;17.27;2.87;;;5.90;96.40;;;;;;5078326;28;20024;-83
2021/03/16 07:06:54;;;;;;;14.53;2.83;;;5.90;96.30;;;;;;5060833;28;20037;-84
2021/03/16 07:09:21;;;;;;;15.53;2.30;;;6.00;96.70;;;;;;5059069;28;20082;-83
2021/03/16 07:11:54;;;;;;;16.87;2.67;;;5.90;96.30;;;;;;5059796;28;20025;-83
2021/03/16 07:14:20;;;;;;;16.10;3.17;;;5.80;96.90;;;;;;5060315;28;20046;-82
2021/03/16 07:16:50;;;;;;;14.37;2.50;;;5.80;96.60;;;;;;5075859;28;20033;-83
2021/03/16 07:19:18;;;;;;;15.63;2.63;;;5.70;96.80;;;;;;5059058;28;20477;-83
2021/03/16 07:21:54;;;;;;;10.40;3.63;;;5.70;96.70;;;;;;5059737;28;20166;-83
2021/03/16 07:24:30;;;;;;;14.97;2.53;;;5.70;96.60;;;;;;5059680;28;20033;-82
2021/03/16 07:27:00;;;;;;;16.63;2.37;;;5.70;96.70;;;;;;5059621;28;20075;-83
2021/03/16 07:29:26;;;;;;;10.07;1.83;;;5.70;96.10;;;;;;5058658;28;20115;-83
2021/03/16 07:31:52;;;;;;;11.77;2.10;;;5.60;95.30;;;;;;5054973;28;20055;-83
2021/03/16 07:34:19;;;;;;;7.50;1.80;;;5.60;95.90;;;;;;5072923;28;20038;-83
2021/03/16 07:36:49;;;;;;;15.00;1.90;;;5.60;95.80;;;;;;5072757;28;20112;-83
2021/03/16 07:39:23;;;;;;;10.00;1.50;;;5.60;96.00;;;;;;5054092;28;20111;-84
2021/03/16 07:41:51;;;;;;;9.13;1.87;;;5.50;95.60;;;;;;5055663;28;20469;-84
2021/03/16 07:44:18;;;;;;;8.20;1.77;;;5.60;96.00;;;;;;5073202;28;20025;-85
2021/03/16 07:46:53;;;;;;;6.20;1.30;;;5.60;96.10;;;;;;5055377;28;20526;-85
2021/03/16 07:49:36;;;;;;;8.10;1.60;;;5.70;96.00;;;;;;5056730;28;20393;-85
2021/03/16 07:52:03;;;;;;;12.23;2.20;;;5.60;96.10;;;;;;5059727;28;20120;-85
2021/03/16 07:54:40;;;;;;;10.80;2.30;;;5.60;95.70;;;;;;5078250;28;20429;-85
2021/03/16 07:57:06;;;;;;;10.40;2.57;;;5.70;96.20;;;;;;5059909;28;20028;-85
2021/03/16 07:59:34;;;;;;;19.43;3.17;;;5.70;95.90;;;;;;5059721;28;20086;-85
2021/03/16 08:02:00;;;;;;;12.57;2.53;;;5.80;95.90;;;;;;5059840;28;20060;-85
2021/03/16 08:04:40;;;;;;;15.87;3.53;;;5.90;96.10;;;;;;5060065;28;20512;-85
2021/03/16 08:07:06;;;;;;;;;;;5.90;96.00;;;;;;5059781;28;20036;-84
2021/03/16 08:09:52;;;;;;;15.47;2.97;;;6.00;96.00;;;;;;5058726;28;20420;-85
2021/03/16 08:12:26;;;;;;;10.27;2.40;;;5.90;95.50;;;;;;5077535;28;20021;-84
2021/03/16 08:14:53;;;;;;;13.50;2.70;;;6.00;95.80;;;;;;5077243;28;20035;-85
2021/03/16 08:17:32;;;;;;;13.20;2.53;;;5.90;96.10;;;;;;5059122;28;20052;-85
2021/03/16 08:19:59;;;;;;;12.75;3.10;;;6.00;96.10;;;;;;5058646;28;20024;-85
2021/03/16 08:22:27;;;;;;;14.57;3.00;;;6.00;96.40;;;;;;5058441;28;20028;-84
2021/03/16 08:25:06;;;;;;;15.37;2.97;;;6.10;96.40;;;;;;5059061;28;20035;-85
2021/03/16 08:27:36;;;;;;;12.45;2.70;;;6.00;96.20;;;;;;5076987;28;20025;-85
2021/03/16 08:30:09;;;;;;;16.30;3.77;;;6.10;96.30;;;;;;5058562;28;20021;-85
2021/03/16 08:32:36;;;;;;;16.37;3.87;;;6.10;96.40;;;;;;5057626;28;20032;-85
2021/03/16 08:35:04;;;;;;;15.50;3.57;;;6.20;96.10;;;;;;5058384;28;20024;-85
2021/03/16 08:37:32;;;;;;;16.53;2.97;;;6.10;96.10;;;;;;5076072;28;20070;-85
2021/03/16 08:39:58;;;;;;;14.87;3.50;;;6.10;96.20;;;;;;5057509;28;20032;-85
2021/03/16 08:42:27;;;;;;;16.50;3.90;;;6.20;96.40;;;;;;5076040;28;20389;-85
2021/03/16 08:44:55;;;;;;;15.30;3.20;;;6.20;96.20;;;;;;5058659;28;20039;-85
2021/03/16 08:47:23;;;;;;;18.47;3.67;;;6.20;96.00;;;;;;5076879;28;20028;-85
2021/03/16 08:49:51;;;;;;;19.05;3.13;;;6.30;96.10;;;;;;5075448;28;20047;-85
2021/03/16 08:52:28;;;;;;;15.13;3.20;;;6.30;95.60;;;;;;5075462;28;20520;-85
2021/03/16 08:54:59;;;;;;;13.33;2.70;;;6.40;95.40;;;;;;5075433;28;20035;-84
2021/03/16 08:57:32;;;;;;;14.60;2.70;;;6.50;95.30;;;;;;5075524;28;20043;-85
2021/03/16 09:00:00;;;;;;;15.47;3.53;;;6.50;95.00;;;;;;5057400;28;20025;-85
2021/03/16 09:02:30;;;;;;;21.13;3.07;;;6.60;94.90;;;;;;5075356;28;20025;-85
2021/03/16 09:04:57;;;;;;;19.47;3.67;;;6.70;94.70;;;;;;5076408;28;20044;-85
2021/03/16 09:07:25;;;;;;;13.07;2.93;;;6.60;93.80;;;;;;5058061;28;20021;-85
2021/03/16 09:10:06;;;;;;;17.63;2.70;;;6.60;94.40;;;;;;5075952;28;20056;-85
2021/03/16 09:12:34;;;;;;;13.73;2.57;;;6.60;94.10;;;;;;5077571;28;20021;-85
2021/03/16 09:15:12;;;;;;;13.57;2.50;;;6.60;93.70;;;;;;5082724;28;20030;-82
2021/03/16 09:17:39;;;;;;;16.73;2.50;;;6.50;94.20;;;;;;5065028;28;20092;-84
2021/03/16 09:20:17;;;;;;;14.60;2.57;;;6.50;94.30;;;;;;5082400;28;20050;-83
2021/03/16 09:22:45;;;;;;;13.73;2.53;;;6.40;94.10;;;;;;5064581;28;20035;-83
2021/03/16 09:25:12;;;;;;;16.23;2.97;;;6.40;94.30;;;;;;5082864;28;20020;-83
2021/03/16 09:27:39;;;;;;;13.93;2.77;;;6.30;94.60;;;;;;5085279;28;20021;-83
2021/03/16 09:30:07;;;;;;;19.20;3.57;;;6.40;95.20;;;;;;5068244;28;20021;-84
2021/03/16 09:32:34;;;;;;;18.37;3.10;;;6.40;95.40;;;;;;5065599;28;20017;-83
2021/03/16 09:35:00;;;;;;;11.00;2.53;;;6.40;95.00;;;;;;5068092;28;20043;-83
2021/03/16 09:37:26;;;;;;;18.57;2.87;;;6.40;95.30;;;;;;5080880;28;20107;-83
2021/03/16 09:39:59;;;;;;;8.87;2.30;;;6.50;95.30;;;;;;5066299;28;20093;-84
2021/03/16 09:42:33;;;;;;;14.40;2.50;;;6.40;94.10;;;;;;5060254;28;20024;-83
2021/03/16 09:45:02;;;;;;;7.70;1.73;;;6.40;93.30;;;;;;5064416;28;20024;-83
2021/03/16 09:47:28;;;;;;;8.70;1.90;;;6.40;93.50;;;;;;5082401;28;20043;-84
2021/03/16 09:50:13;;;;;;;9.77;1.50;;;6.40;93.40;;;;;;5060679;28;20029;-82
2021/03/16 09:52:40;;;;;;;8.37;1.90;;;6.40;93.20;;;;;;5060452;28;20020;-83
2021/03/16 09:55:06;;;;;;;10.67;1.80;;;6.40;93.60;;;;;;5079165;28;20047;-83
2021/03/16 09:57:33;;;;;;;9.40;1.90;;;6.40;93.40;;;;;;5060864;28;20025;-84
2021/03/16 10:00:00;;;;;;;10.60;2.10;;;6.40;93.50;;;;;;5061747;28;20031;-83
2021/03/16 10:02:34;;;;;;;13.00;2.00;;;6.40;93.40;;;;;;5065911;28;20021;-83
2021/03/16 10:05:07;;;;;;;16.20;2.77;;;6.40;93.20;;;;;;5084975;28;20035;-83
2021/03/16 10:07:33;;;;;;;8.70;2.17;;;6.40;93.40;;;;;;5066830;28;20020;-83
2021/03/16 10:10:06;;;;;;;11.87;3.03;;;6.40;93.50;;;;;;5083618;28;20020;-83
2021/03/16 10:12:32;;;;;;;13.43;3.10;;;6.50;93.50;;;;;;5065013;28;20046;-83
2021/03/16 10:14:58;;;;;;;6.27;2.40;;;6.50;93.50;;;;;;5066677;28;20044;-83
2021/03/16 10:17:28;;;;;;;12.10;3.17;;;6.70;93.60;;;;;;5067181;28;20028;-83
2021/03/16 10:20:00;;;;;;;17.07;3.93;;;6.70;93.10;;;;;;5066970;28;20021;-83
2021/03/16 10:22:36;;;;;;;12.63;3.57;;;6.70;93.20;;;;;;5066764;28;20462;-83
2021/03/16 10:25:09;;;;;;;10.20;3.40;;;6.80;92.70;;;;;;5080334;28;20020;-83
2021/03/16 10:27:35;;;;;;;14.70;3.93;;;6.80;92.80;;;;;;5062616;28;20389;-83
2021/03/16 10:30:04;;;;;;;12.40;3.43;;;6.90;93.10;;;;;;5055796;28;20162;-83
2021/03/16 10:32:29;;;;;;;16.77;4.43;;;6.80;93.20;;;;;;5054168;28;20119;-84
2021/03/16 10:34:55;;;;;;;16.73;3.97;;;6.70;93.20;;;;;;5054712;28;20565;-84
2021/03/16 10:37:23;;;;;;;16.33;3.97;;;6.80;94.30;;;;;;5054749;28;20040;-83
2021/03/16 10:39:49;;;;;;;13.43;3.17;;;6.70;95.10;;;;;;5054241;28;20024;-83
2021/03/16 10:42:15;;;;;;;7.37;2.00;;;6.50;95.30;;;;;;5073584;28;20036;-82
2021/03/16 10:44:41;;;;;;;6.40;1.63;;;6.40;95.10;;;;;;5059938;28;20036;-82
2021/03/16 10:47:07;;;;;;;5.97;1.97;;;6.20;95.30;;;;;;5060571;28;20052;-82
2021/03/16 10:49:34;;;;;;;5.43;2.10;;;6.20;96.10;;;;;;5060197;28;20024;-82
2021/03/16 10:52:00;;;;;;;7.33;2.33;;;6.20;96.10;;;;;;5062217;28;20177;-82
2021/03/16 10:54:26;;;;;;;7.20;2.00;;;6.20;96.80;;;;;;5059459;28;20027;-83
2021/03/16 10:56:54;;;;;;;8.63;2.20;;;6.30;96.80;;;;;;5077762;28;20059;-83
2021/03/16 10:59:21;;;;;;;8.57;2.13;;;6.20;96.80;;;;;;5076071;28;20652;-82
2021/03/16 11:01:49;;;;;;;10.13;1.60;;;6.20;96.30;;;;;;5077902;28;20032;-83
2021/03/16 11:04:17;;;;;;;4.85;1.30;;;6.10;95.70;;;;;;5059308;28;20107;-82
2021/03/16 11:06:45;;;;;;;4.57;1.00;;;6.00;95.90;;;;;;5077496;28;20020;-83
2021/03/16 11:09:12;;;;;;;5.03;0.80;;;6.00;96.20;;;;;;5079883;28;20028;-82
2021/03/16 11:11:37;;;;;;;5.37;1.07;;;6.00;96.00;;;;;;5062832;28;20025;-83
2021/03/16 11:14:03;;;;;;;5.60;1.00;;;6.00;95.40;;;;;;5061381;28;20115;-83
2021/03/16 11:16:28;;;;;;;4.47;1.30;;;6.10;96.00;;;;;;5060629;28;20031;-83
2021/03/16 11:18:54;;;;;;;6.80;1.23;;;6.10;95.50;;;;;;5076877;28;20020;-84
2021/03/16 11:21:20;;;;;;;8.07;1.67;;;6.30;96.10;;;;;;5061149;28;20036;-82
2021/03/16 11:23:45;;;;;;;11.40;1.80;;;6.40;95.30;;;;;;5079253;28;20021;-83
2021/03/16 11:26:11;;;;;;;10.60;2.53;;;6.50;95.50;;;;;;5065592;28;20092;-83
2021/03/16 11:28:36;;;;;;;7.87;1.83;;;6.60;95.30;;;;;;5063801;28;20024;-82
2021/03/16 11:31:02;;;;;;;7.70;1.57;;;6.70;95.70;;;;;;5062336;28;20027;-83
2021/03/16 11:33:28;;;;;;;10.67;1.83;;;6.80;95.00;;;;;;5082488;28;20096;-82
2021/03/16 11:35:54;;;;;;;11.83;2.00;;;6.90;95.60;;;;;;5063392;28;20021;-83
2021/03/16 11:38:19;;;;;;;10.80;2.13;;;7.00;95.50;;;;;;5074914;28;20020;-83
2021/03/16 11:40:45;;;;;;;13.47;2.53;;;7.00;95.40;;;;;;5079613;28;20032;-83
2021/03/16 11:43:11;;;;;;;14.83;2.53;;;7.00;95.20;;;;;;5063649;28;20165;-83
2021/03/16 11:45:37;;;;;;;16.17;3.00;;;7.00;94.00;;;;;;5062586;28;20028;-83
2021/03/16 11:48:03;;;;;;;10.87;2.90;;;7.00;94.60;;;;;;5062250;28;20028;-84
2021/03/16 11:50:29;;;;;;;13.60;3.20;;;7.10;94.80;;;;;;5080260;28;20017;-84
2021/03/16 11:52:55;;;;;;;14.13;3.27;;;7.30;95.00;;;;;;5081102;28;20520;-84
2021/03/16 11:55:20;;;;;;;11.10;2.40;;;7.40;94.90;;;;;;5062240;28;20028;-83
2021/03/16 11:57:46;;;;;;;13.60;2.73;;;7.40;94.10;;;;;;5063466;28;20028;-84
2021/03/16 12:00:12;;;;;;;15.53;2.80;;;7.40;93.00;;;;;;5063025;28;20029;-83
2021/03/16 12:02:38;;;;;;;11.43;3.07;;;7.40;92.60;;;;;;5081303;28;20078;-84
2021/03/16 12:05:04;;;;;;;9.73;2.00;;;7.50;92.60;;;;;;5079363;28;20032;-84
2021/03/16 12:07:31;;;;;;;8.43;2.10;;;7.50;92.60;;;;;;5062017;28;20035;-84
2021/03/16 12:09:57;;;;;;;10.77;2.10;;;7.50;91.80;;;;;;5079547;28;20389;-84
2021/03/16 12:12:22;;;;;;;15.10;2.83;;;7.60;92.10;;;;;;5081277;28;20032;-84
2021/03/16 12:14:48;;;;;;;11.03;1.93;;;7.60;92.40;;;;;;5079505;28;20059;-84
2021/03/16 12:17:14;;;;;;;9.60;2.10;;;7.60;92.20;;;;;;5079935;28;20124;-84
2021/03/16 12:19:40;;;;;;;12.80;2.20;;;7.50;91.80;;;;;;5080071;28;20060;-84
2021/03/16 12:22:06;;;;;;;13.37;2.63;;;7.50;92.20;;;;;;5062574;28;20028;-83
2021/03/16 12:24:31;;;;;;;11.23;2.20;;;7.50;92.00;;;;;;5062113;28;20396;-83
2021/03/16 12:26:57;;;;;;;6.50;1.50;;;7.50;92.70;;;;;;5081065;28;20029;-83
2021/03/16 12:29:23;;;;;;;6.13;1.30;;;7.10;92.40;;;;;;5079052;28;20499;-84
2021/03/16 12:31:48;;;;;;;9.47;1.70;;;6.80;94.00;;;;;;5061925;28;20028;-83
2021/03/16 12:34:14;;;;;;;6.97;1.20;;;6.50;95.20;;;;;;5064458;28;20047;-84
2021/03/16 12:36:40;;;;;;;6.40;1.60;;;6.30;96.10;;;;;;5061100;28;20035;-83
2021/03/16 12:39:06;;;;;;;6.57;1.43;;;6.20;96.70;;;;;;5061537;28;20028;-83
2021/03/16 12:41:33;;;;;;;5.47;1.40;;;6.10;97.00;;;;;;5063861;28;20713;-83
2021/03/16 12:43:59;;;;;;;5.67;1.77;;;6.10;97.30;;;;;;5064422;28;20071;-84
2021/03/16 12:46:27;;;;;;;6.67;1.90;;;6.20;97.00;;;;;;5064961;28;20489;-85
2021/03/16 12:48:53;;;;;;;7.30;1.30;;;6.30;96.80;;;;;;5062973;28;20032;-84
2021/03/16 12:51:18;;;;;;;6.37;1.50;;;6.30;95.30;;;;;;5064505;28;20017;-84